sensor_id;sensor_type;location;lat;lon;timestamp;temperature;humidity
59771;DHT22;45649;53.014;6.600;2022-08-27T00:01:50;17.90;76.60
59771;DHT22;45649;53.014;6.600;2022-08-27T00:04:16;17.90;76.70
59771;DHT22;45649;53.014;6.600;2022-08-27T00:06:41;17.90;76.70
59771;DHT22;45649;53.014;6.600;2022-08-27T00:09:07;17.90;76.60
59771;DHT22;45649;53.014;6.600;2022-08-27T00:11:34;17.90;76.50
59771;DHT22;45649;53.014;6.600;2022-08-27T00:14:00;17.90;76.30
59771;DHT22;45649;53.014;6.600;2022-08-27T00:16:26;17.80;76.40
59771;DHT22;45649;53.014;6.600;2022-08-27T00:18:53;17.80;76.50
59771;DHT22;45649;53.014;6.600;2022-08-27T00:21:20;17.70;76.50
59771;DHT22;45649;53.014;6.600;2022-08-27T00:23:46;17.70;76.70
59771;DHT22;45649;53.014;6.600;2022-08-27T00:26:13;17.70;76.60
59771;DHT22;45649;53.014;6.600;2022-08-27T00:28:39;17.70;76.60
59771;DHT22;45649;53.014;6.600;2022-08-27T00:31:06;17.70;76.60
59771;DHT22;45649;53.014;6.600;2022-08-27T00:33:32;17.70;77.20
59771;DHT22;45649;53.014;6.600;2022-08-27T00:35:58;17.60;76.70
59771;DHT22;45649;53.014;6.600;2022-08-27T00:38:23;17.60;76.60
59771;DHT22;45649;53.014;6.600;2022-08-27T00:40:50;17.60;76.50
59771;DHT22;45649;53.014;6.600;2022-08-27T00:43:28;17.60;76.60
59771;DHT22;45649;53.014;6.600;2022-08-27T00:46:02;17.50;76.60
59771;DHT22;45649;53.014;6.600;2022-08-27T00:48:31;17.50;76.80
59771;DHT22;45649;53.014;6.600;2022-08-27T00:50:59;17.40;77.00
59771;DHT22;45649;53.014;6.600;2022-08-27T00:53:28;17.40;78.00
59771;DHT22;45649;53.014;6.600;2022-08-27T00:56:01;17.40;77.00
59771;DHT22;45649;53.014;6.600;2022-08-27T00:58:30;17.50;77.00
59771;DHT22;45649;53.014;6.600;2022-08-27T01:00:58;17.40;77.00
59771;DHT22;45649;53.014;6.600;2022-08-27T01:03:24;17.40;77.10
59771;DHT22;45649;53.014;6.600;2022-08-27T01:05:54;17.40;77.10
59771;DHT22;45649;53.014;6.600;2022-08-27T01:08:25;17.40;77.10
59771;DHT22;45649;53.014;6.600;2022-08-27T01:10:53;17.30;77.10
59771;DHT22;45649;53.014;6.600;2022-08-27T01:13:21;17.40;77.20
59771;DHT22;45649;53.014;6.600;2022-08-27T01:15:48;17.40;77.30
59771;DHT22;45649;53.014;6.600;2022-08-27T01:18:14;17.30;77.40
59771;DHT22;45649;53.014;6.600;2022-08-27T01:21:08;17.30;77.40
59771;DHT22;45649;53.014;6.600;2022-08-27T01:23:47;17.30;77.60
59771;DHT22;45649;53.014;6.600;2022-08-27T01:26:15;17.30;77.90
59771;DHT22;45649;53.014;6.600;2022-08-27T01:28:43;17.30;77.70
59771;DHT22;45649;53.014;6.600;2022-08-27T01:31:10;17.30;77.40
59771;DHT22;45649;53.014;6.600;2022-08-27T01:33:37;17.30;77.30
59771;DHT22;45649;53.014;6.600;2022-08-27T01:36:04;17.30;77.40
59771;DHT22;45649;53.014;6.600;2022-08-27T01:38:31;17.20;77.40
59771;DHT22;45649;53.014;6.600;2022-08-27T01:40:58;17.20;77.70
59771;DHT22;45649;53.014;6.600;2022-08-27T01:43:24;17.20;77.70
59771;DHT22;45649;53.014;6.600;2022-08-27T01:45:50;17.20;77.80
59771;DHT22;45649;53.014;6.600;2022-08-27T01:48:20;17.20;77.70
59771;DHT22;45649;53.014;6.600;2022-08-27T01:50:47;17.30;78.00
59771;DHT22;45649;53.014;6.600;2022-08-27T01:53:16;17.20;77.80
59771;DHT22;45649;53.014;6.600;2022-08-27T01:55:43;17.20;77.80
59771;DHT22;45649;53.014;6.600;2022-08-27T01:58:09;17.20;77.90
59771;DHT22;45649;53.014;6.600;2022-08-27T02:03:12;17.10;77.80
59771;DHT22;45649;53.014;6.600;2022-08-27T02:05:38;17.10;78.00
59771;DHT22;45649;53.014;6.600;2022-08-27T02:08:06;17.10;77.90
59771;DHT22;45649;53.014;6.600;2022-08-27T02:10:35;17.10;77.90
59771;DHT22;45649;53.014;6.600;2022-08-27T02:13:02;17.00;78.00
59771;DHT22;45649;53.014;6.600;2022-08-27T02:15:28;17.00;78.20
59771;DHT22;45649;53.014;6.600;2022-08-27T02:17:54;16.90;78.30
59771;DHT22;45649;53.014;6.600;2022-08-27T02:20:21;16.90;78.40
59771;DHT22;45649;53.014;6.600;2022-08-27T02:22:47;16.90;78.50
59771;DHT22;45649;53.014;6.600;2022-08-27T02:25:15;16.90;78.50
59771;DHT22;45649;53.014;6.600;2022-08-27T02:27:44;16.90;78.40
59771;DHT22;45649;53.014;6.600;2022-08-27T02:30:12;16.90;78.00
59771;DHT22;45649;53.014;6.600;2022-08-27T02:32:38;16.90;77.90
59771;DHT22;45649;53.014;6.600;2022-08-27T02:35:05;16.90;78.20
59771;DHT22;45649;53.014;6.600;2022-08-27T02:37:31;16.90;78.20
59771;DHT22;45649;53.014;6.600;2022-08-27T02:39:57;16.80;78.50
59771;DHT22;45649;53.014;6.600;2022-08-27T02:42:23;16.80;78.70
59771;DHT22;45649;53.014;6.600;2022-08-27T02:44:48;16.70;78.70
59771;DHT22;45649;53.014;6.600;2022-08-27T02:47:15;16.80;78.70
59771;DHT22;45649;53.014;6.600;2022-08-27T02:49:41;16.80;78.30
59771;DHT22;45649;53.014;6.600;2022-08-27T02:52:08;16.80;78.20
59771;DHT22;45649;53.014;6.600;2022-08-27T02:54:33;16.80;78.00
59771;DHT22;45649;53.014;6.600;2022-08-27T02:56:59;16.80;77.90
59771;DHT22;45649;53.014;6.600;2022-08-27T02:59:25;16.80;78.10
59771;DHT22;45649;53.014;6.600;2022-08-27T03:01:51;16.80;77.90
59771;DHT22;45649;53.014;6.600;2022-08-27T03:04:17;16.80;77.80
59771;DHT22;45649;53.014;6.600;2022-08-27T03:06:45;16.80;77.80
59771;DHT22;45649;53.014;6.600;2022-08-27T03:09:11;16.80;77.70
59771;DHT22;45649;53.014;6.600;2022-08-27T03:11:36;16.80;77.70
59771;DHT22;45649;53.014;6.600;2022-08-27T03:14:02;16.80;77.80
59771;DHT22;45649;53.014;6.600;2022-08-27T03:16:28;16.80;77.70
59771;DHT22;45649;53.014;6.600;2022-08-27T03:18:54;16.90;77.70
59771;DHT22;45649;53.014;6.600;2022-08-27T03:21:25;16.90;77.70
59771;DHT22;45649;53.014;6.600;2022-08-27T03:23:51;16.90;77.30
59771;DHT22;45649;53.014;6.600;2022-08-27T03:26:17;16.90;77.60
59771;DHT22;45649;53.014;6.600;2022-08-27T03:28:43;16.90;77.70
59771;DHT22;45649;53.014;6.600;2022-08-27T03:31:18;16.90;77.50
59771;DHT22;45649;53.014;6.600;2022-08-27T03:34:01;16.90;77.70
59771;DHT22;45649;53.014;6.600;2022-08-27T03:36:29;16.80;77.60
59771;DHT22;45649;53.014;6.600;2022-08-27T03:38:56;16.80;77.90
59771;DHT22;45649;53.014;6.600;2022-08-27T03:41:22;16.80;77.90
59771;DHT22;45649;53.014;6.600;2022-08-27T03:43:49;16.80;78.10
59771;DHT22;45649;53.014;6.600;2022-08-27T03:46:17;16.80;78.10
59771;DHT22;45649;53.014;6.600;2022-08-27T03:48:44;16.80;78.40
59771;DHT22;45649;53.014;6.600;2022-08-27T03:51:12;16.80;78.40
59771;DHT22;45649;53.014;6.600;2022-08-27T03:53:40;16.80;78.10
59771;DHT22;45649;53.014;6.600;2022-08-27T03:56:06;16.80;78.50
59771;DHT22;45649;53.014;6.600;2022-08-27T03:58:33;16.70;78.60
59771;DHT22;45649;53.014;6.600;2022-08-27T04:01:00;16.80;78.70
59771;DHT22;45649;53.014;6.600;2022-08-27T04:03:26;16.80;78.50
59771;DHT22;45649;53.014;6.600;2022-08-27T04:05:56;16.70;78.70
59771;DHT22;45649;53.014;6.600;2022-08-27T04:08:23;16.70;78.90
59771;DHT22;45649;53.014;6.600;2022-08-27T04:10:49;16.70;79.30
59771;DHT22;45649;53.014;6.600;2022-08-27T04:13:17;16.70;79.20
59771;DHT22;45649;53.014;6.600;2022-08-27T04:15:44;16.70;78.90
59771;DHT22;45649;53.014;6.600;2022-08-27T04:18:11;16.90;79.10
59771;DHT22;45649;53.014;6.600;2022-08-27T04:20:40;16.80;79.20
59771;DHT22;45649;53.014;6.600;2022-08-27T04:23:05;17.00;79.10
59771;DHT22;45649;53.014;6.600;2022-08-27T04:25:32;16.90;79.00
59771;DHT22;45649;53.014;6.600;2022-08-27T04:27:58;16.80;78.90
59771;DHT22;45649;53.014;6.600;2022-08-27T04:30:23;16.80;78.90
59771;DHT22;45649;53.014;6.600;2022-08-27T04:32:49;16.80;79.10
59771;DHT22;45649;53.014;6.600;2022-08-27T04:35:15;16.80;79.10
59771;DHT22;45649;53.014;6.600;2022-08-27T04:37:41;16.80;79.10
59771;DHT22;45649;53.014;6.600;2022-08-27T04:40:08;17.00;77.80
59771;DHT22;45649;53.014;6.600;2022-08-27T04:42:33;17.20;76.40
59771;DHT22;45649;53.014;6.600;2022-08-27T04:44:59;17.20;76.90
59771;DHT22;45649;53.014;6.600;2022-08-27T04:47:25;17.10;77.50
59771;DHT22;45649;53.014;6.600;2022-08-27T04:49:51;17.00;77.90
59771;DHT22;45649;53.014;6.600;2022-08-27T04:52:16;16.90;78.20
59771;DHT22;45649;53.014;6.600;2022-08-27T04:54:42;16.90;78.30
59771;DHT22;45649;53.014;6.600;2022-08-27T04:57:08;16.80;78.80
59771;DHT22;45649;53.014;6.600;2022-08-27T04:59:35;16.80;78.60
59771;DHT22;45649;53.014;6.600;2022-08-27T05:02:03;16.80;78.70
59771;DHT22;45649;53.014;6.600;2022-08-27T05:04:30;16.70;78.90
59771;DHT22;45649;53.014;6.600;2022-08-27T05:06:56;16.70;79.00
59771;DHT22;45649;53.014;6.600;2022-08-27T05:09:22;16.70;78.90
59771;DHT22;45649;53.014;6.600;2022-08-27T05:11:48;16.70;79.20
59771;DHT22;45649;53.014;6.600;2022-08-27T05:14:16;16.60;79.10
59771;DHT22;45649;53.014;6.600;2022-08-27T05:16:43;16.60;79.40
59771;DHT22;45649;53.014;6.600;2022-08-27T05:19:10;16.60;79.40
59771;DHT22;45649;53.014;6.600;2022-08-27T05:21:43;16.60;79.60
59771;DHT22;45649;53.014;6.600;2022-08-27T05:24:10;16.60;79.30
59771;DHT22;45649;53.014;6.600;2022-08-27T05:26:36;16.60;79.30
59771;DHT22;45649;53.014;6.600;2022-08-27T05:29:03;16.60;79.70
59771;DHT22;45649;53.014;6.600;2022-08-27T05:31:30;16.60;79.70
59771;DHT22;45649;53.014;6.600;2022-08-27T05:33:56;16.60;79.40
59771;DHT22;45649;53.014;6.600;2022-08-27T05:36:31;16.60;79.60
59771;DHT22;45649;53.014;6.600;2022-08-27T05:38:58;16.70;79.60
59771;DHT22;45649;53.014;6.600;2022-08-27T05:41:28;16.70;79.40
59771;DHT22;45649;53.014;6.600;2022-08-27T05:43:56;16.70;79.70
59771;DHT22;45649;53.014;6.600;2022-08-27T05:46:23;16.80;79.40
59771;DHT22;45649;53.014;6.600;2022-08-27T05:48:51;16.80;79.50
59771;DHT22;45649;53.014;6.600;2022-08-27T05:51:20;16.80;79.40
59771;DHT22;45649;53.014;6.600;2022-08-27T05:53:46;16.90;79.20
59771;DHT22;45649;53.014;6.600;2022-08-27T05:56:18;16.90;79.20
59771;DHT22;45649;53.014;6.600;2022-08-27T05:58:45;16.90;79.20
59771;DHT22;45649;53.014;6.600;2022-08-27T06:01:31;17.00;78.80
59771;DHT22;45649;53.014;6.600;2022-08-27T06:03:57;17.00;79.00
59771;DHT22;45649;53.014;6.600;2022-08-27T06:06:23;17.10;78.80
59771;DHT22;45649;53.014;6.600;2022-08-27T06:08:50;17.20;78.00
59771;DHT22;45649;53.014;6.600;2022-08-27T06:11:17;17.10;78.80
59771;DHT22;45649;53.014;6.600;2022-08-27T06:13:45;17.20;79.70
59771;DHT22;45649;53.014;6.600;2022-08-27T06:16:12;17.20;78.90
59771;DHT22;45649;53.014;6.600;2022-08-27T06:18:41;17.20;78.60
59771;DHT22;45649;53.014;6.600;2022-08-27T06:21:08;17.20;78.60
59771;DHT22;45649;53.014;6.600;2022-08-27T06:23:34;17.30;78.40
59771;DHT22;45649;53.014;6.600;2022-08-27T06:26:01;17.40;78.30
59771;DHT22;45649;53.014;6.600;2022-08-27T06:28:29;17.40;78.00
59771;DHT22;45649;53.014;6.600;2022-08-27T06:31:06;17.50;78.50
59771;DHT22;45649;53.014;6.600;2022-08-27T06:33:33;17.50;78.90
59771;DHT22;45649;53.014;6.600;2022-08-27T06:36:03;17.60;78.80
59771;DHT22;45649;53.014;6.600;2022-08-27T06:38:30;17.60;78.50
59771;DHT22;45649;53.014;6.600;2022-08-27T06:40:56;17.70;78.20
59771;DHT22;45649;53.014;6.600;2022-08-27T06:43:23;17.80;78.10
59771;DHT22;45649;53.014;6.600;2022-08-27T06:45:50;17.80;78.20
59771;DHT22;45649;53.014;6.600;2022-08-27T06:48:16;18.00;79.10
59771;DHT22;45649;53.014;6.600;2022-08-27T06:50:42;18.00;78.50
59771;DHT22;45649;53.014;6.600;2022-08-27T06:53:09;18.10;78.50
59771;DHT22;45649;53.014;6.600;2022-08-27T06:55:42;18.10;78.10
59771;DHT22;45649;53.014;6.600;2022-08-27T06:58:09;18.10;77.90
59771;DHT22;45649;53.014;6.600;2022-08-27T07:00:34;18.20;77.50
59771;DHT22;45649;53.014;6.600;2022-08-27T07:03:00;18.30;77.50
59771;DHT22;45649;53.014;6.600;2022-08-27T07:05:28;18.30;77.30
59771;DHT22;45649;53.014;6.600;2022-08-27T07:07:54;18.30;77.40
59771;DHT22;45649;53.014;6.600;2022-08-27T07:10:19;18.30;77.30
59771;DHT22;45649;53.014;6.600;2022-08-27T07:12:45;18.40;77.30
59771;DHT22;45649;53.014;6.600;2022-08-27T07:15:11;18.40;77.30
59771;DHT22;45649;53.014;6.600;2022-08-27T07:17:37;18.50;77.10
59771;DHT22;45649;53.014;6.600;2022-08-27T07:20:06;18.60;78.20
59771;DHT22;45649;53.014;6.600;2022-08-27T07:22:32;18.60;76.80
59771;DHT22;45649;53.014;6.600;2022-08-27T07:24:58;18.70;77.60
59771;DHT22;45649;53.014;6.600;2022-08-27T07:27:25;18.80;76.50
59771;DHT22;45649;53.014;6.600;2022-08-27T07:29:51;18.80;76.40
59771;DHT22;45649;53.014;6.600;2022-08-27T07:32:17;18.80;76.10
59771;DHT22;45649;53.014;6.600;2022-08-27T07:34:43;18.80;75.80
59771;DHT22;45649;53.014;6.600;2022-08-27T07:37:09;18.80;76.20
59771;DHT22;45649;53.014;6.600;2022-08-27T07:39:35;18.80;75.90
59771;DHT22;45649;53.014;6.600;2022-08-27T07:42:00;18.90;76.20
59771;DHT22;45649;53.014;6.600;2022-08-27T07:44:44;18.90;75.90
59771;DHT22;45649;53.014;6.600;2022-08-27T07:47:10;18.90;76.10
59771;DHT22;45649;53.014;6.600;2022-08-27T07:49:37;18.90;76.10
59771;DHT22;45649;53.014;6.600;2022-08-27T07:52:03;18.90;76.00
59771;DHT22;45649;53.014;6.600;2022-08-27T07:54:28;19.00;76.20
59771;DHT22;45649;53.014;6.600;2022-08-27T07:56:54;19.00;76.60
59771;DHT22;45649;53.014;6.600;2022-08-27T07:59:20;19.00;76.40
59771;DHT22;45649;53.014;6.600;2022-08-27T08:01:45;19.00;76.40
59771;DHT22;45649;53.014;6.600;2022-08-27T08:04:14;19.00;76.80
59771;DHT22;45649;53.014;6.600;2022-08-27T08:06:40;19.10;76.10
59771;DHT22;45649;53.014;6.600;2022-08-27T08:09:06;19.20;76.00
59771;DHT22;45649;53.014;6.600;2022-08-27T08:11:32;19.30;75.20
59771;DHT22;45649;53.014;6.600;2022-08-27T08:13:58;19.40;74.10
59771;DHT22;45649;53.014;6.600;2022-08-27T08:16:25;19.40;73.70
59771;DHT22;45649;53.014;6.600;2022-08-27T08:18:51;19.40;73.20
59771;DHT22;45649;53.014;6.600;2022-08-27T08:21:16;19.40;73.40
59771;DHT22;45649;53.014;6.600;2022-08-27T08:23:43;19.30;73.20
59771;DHT22;45649;53.014;6.600;2022-08-27T08:26:10;19.30;73.40
59771;DHT22;45649;53.014;6.600;2022-08-27T08:28:36;19.30;73.60
59771;DHT22;45649;53.014;6.600;2022-08-27T08:31:03;19.30;73.50
59771;DHT22;45649;53.014;6.600;2022-08-27T08:33:29;19.40;72.10
59771;DHT22;45649;53.014;6.600;2022-08-27T08:36:02;19.50;69.70
59771;DHT22;45649;53.014;6.600;2022-08-27T08:38:28;19.60;69.00
59771;DHT22;45649;53.014;6.600;2022-08-27T08:40:54;19.60;68.30
59771;DHT22;45649;53.014;6.600;2022-08-27T08:43:28;19.50;69.30
59771;DHT22;45649;53.014;6.600;2022-08-27T08:46:05;19.50;70.40
59771;DHT22;45649;53.014;6.600;2022-08-27T08:48:39;19.50;71.30
59771;DHT22;45649;53.014;6.600;2022-08-27T08:53:51;19.50;71.50
59771;DHT22;45649;53.014;6.600;2022-08-27T08:56:28;19.50;70.10
59771;DHT22;45649;53.014;6.600;2022-08-27T08:59:01;19.50;70.50
59771;DHT22;45649;53.014;6.600;2022-08-27T09:01:27;19.60;70.70
59771;DHT22;45649;53.014;6.600;2022-08-27T09:03:56;19.60;70.80
59771;DHT22;45649;53.014;6.600;2022-08-27T09:09:00;19.60;69.50
59771;DHT22;45649;53.014;6.600;2022-08-27T09:11:33;19.60;68.50
59771;DHT22;45649;53.014;6.600;2022-08-27T09:14:12;19.60;68.40
59771;DHT22;45649;53.014;6.600;2022-08-27T09:16:41;19.60;67.90
59771;DHT22;45649;53.014;6.600;2022-08-27T09:19:07;19.60;68.10
59771;DHT22;45649;53.014;6.600;2022-08-27T09:27:13;19.90;67.30
59771;DHT22;45649;53.014;6.600;2022-08-27T09:29:54;20.00;66.50
59771;DHT22;45649;53.014;6.600;2022-08-27T09:32:31;20.10;65.70
59771;DHT22;45649;53.014;6.600;2022-08-27T09:35:03;20.10;65.60
59771;DHT22;45649;53.014;6.600;2022-08-27T09:37:32;20.00;65.90
59771;DHT22;45649;53.014;6.600;2022-08-27T09:42:40;20.20;65.80
59771;DHT22;45649;53.014;6.600;2022-08-27T09:45:13;20.20;65.70
59771;DHT22;45649;53.014;6.600;2022-08-27T09:47:48;20.20;65.50
59771;DHT22;45649;53.014;6.600;2022-08-27T09:50:17;20.30;65.90
59771;DHT22;45649;53.014;6.600;2022-08-27T09:52:51;20.30;66.30
59771;DHT22;45649;53.014;6.600;2022-08-27T09:58:05;20.20;65.70
59771;DHT22;45649;53.014;6.600;2022-08-27T10:00:40;20.20;66.50
59771;DHT22;45649;53.014;6.600;2022-08-27T10:03:07;20.10;67.10
59771;DHT22;45649;53.014;6.600;2022-08-27T10:05:48;20.30;67.80
59771;DHT22;45649;53.014;6.600;2022-08-27T10:11:36;20.40;63.60
59771;DHT22;45649;53.014;6.600;2022-08-27T10:14:22;20.30;63.10
59771;DHT22;45649;53.014;6.600;2022-08-27T10:30:37;20.40;65.10
59771;DHT22;45649;53.014;6.600;2022-08-27T10:39:10;20.50;63.20
59771;DHT22;45649;53.014;6.600;2022-08-27T10:42:13;20.60;63.20
59771;DHT22;45649;53.014;6.600;2022-08-27T10:47:53;20.70;61.60
59771;DHT22;45649;53.014;6.600;2022-08-27T10:53:21;20.80;62.60
59771;DHT22;45649;53.014;6.600;2022-08-27T10:55:55;20.80;62.50
59771;DHT22;45649;53.014;6.600;2022-08-27T11:03:51;20.50;63.10
59771;DHT22;45649;53.014;6.600;2022-08-27T11:08:59;20.40;63.80
59771;DHT22;45649;53.014;6.600;2022-08-27T11:11:33;20.30;63.60
59771;DHT22;45649;53.014;6.600;2022-08-27T11:14:04;20.30;63.90
59771;DHT22;45649;53.014;6.600;2022-08-27T11:16:36;20.40;65.20
59771;DHT22;45649;53.014;6.600;2022-08-27T11:19:51;20.40;64.40
59771;DHT22;45649;53.014;6.600;2022-08-27T11:27:56;20.50;64.20
59771;DHT22;45649;53.014;6.600;2022-08-27T11:43:57;20.50;63.00
59771;DHT22;45649;53.014;6.600;2022-08-27T11:46:26;20.80;62.10
59771;DHT22;45649;53.014;6.600;2022-08-27T11:49:00;21.00;61.50
59771;DHT22;45649;53.014;6.600;2022-08-27T11:51:31;21.10;61.40
59771;DHT22;45649;53.014;6.600;2022-08-27T11:54:21;21.00;62.10
59771;DHT22;45649;53.014;6.600;2022-08-27T11:56:47;21.00;62.90
59771;DHT22;45649;53.014;6.600;2022-08-27T12:01:53;21.00;61.70
59771;DHT22;45649;53.014;6.600;2022-08-27T12:04:35;20.80;62.40
59771;DHT22;45649;53.014;6.600;2022-08-27T12:09:46;20.90;62.60
59771;DHT22;45649;53.014;6.600;2022-08-27T12:15:07;21.00;61.50
59771;DHT22;45649;53.014;6.600;2022-08-27T12:23:28;21.30;60.80
59771;DHT22;45649;53.014;6.600;2022-08-27T12:26:30;21.40;59.80
59771;DHT22;45649;53.014;6.600;2022-08-27T12:31:45;21.70;57.80
59771;DHT22;45649;53.014;6.600;2022-08-27T12:34:19;21.70;57.60
59771;DHT22;45649;53.014;6.600;2022-08-27T12:36:51;21.70;56.70
59771;DHT22;45649;53.014;6.600;2022-08-27T12:39:22;21.70;56.70
59771;DHT22;45649;53.014;6.600;2022-08-27T12:41:49;21.90;55.80
59771;DHT22;45649;53.014;6.600;2022-08-27T12:44:28;21.90;55.00
59771;DHT22;45649;53.014;6.600;2022-08-27T12:46:59;22.00;55.70
59771;DHT22;45649;53.014;6.600;2022-08-27T12:49:54;21.70;56.80
59771;DHT22;45649;53.014;6.600;2022-08-27T12:55:21;21.70;57.50
59771;DHT22;45649;53.014;6.600;2022-08-27T12:58:15;21.60;55.60
59771;DHT22;45649;53.014;6.600;2022-08-27T13:03:51;21.90;57.30
59771;DHT22;45649;53.014;6.600;2022-08-27T13:06:31;21.80;57.80
59771;DHT22;45649;53.014;6.600;2022-08-27T13:09:06;21.70;57.90
59771;DHT22;45649;53.014;6.600;2022-08-27T13:11:42;21.70;58.20
59771;DHT22;45649;53.014;6.600;2022-08-27T13:14:19;21.70;57.60
59771;DHT22;45649;53.014;6.600;2022-08-27T13:16:50;21.80;56.40
59771;DHT22;45649;53.014;6.600;2022-08-27T13:19:30;21.90;55.50
59771;DHT22;45649;53.014;6.600;2022-08-27T13:21:57;22.10;54.90
59771;DHT22;45649;53.014;6.600;2022-08-27T13:26:54;22.30;55.60
59771;DHT22;45649;53.014;6.600;2022-08-27T13:29:23;22.30;56.60
59771;DHT22;45649;53.014;6.600;2022-08-27T13:31:49;22.30;56.80
59771;DHT22;45649;53.014;6.600;2022-08-27T13:34:21;22.40;56.10
59771;DHT22;45649;53.014;6.600;2022-08-27T13:39:25;22.40;55.60
59771;DHT22;45649;53.014;6.600;2022-08-27T13:41:51;22.60;56.10
59771;DHT22;45649;53.014;6.600;2022-08-27T13:44:24;22.60;55.00
59771;DHT22;45649;53.014;6.600;2022-08-27T13:46:56;22.50;54.20
59771;DHT22;45649;53.014;6.600;2022-08-27T13:49:25;22.50;55.60
59771;DHT22;45649;53.014;6.600;2022-08-27T13:52:09;22.20;55.30
59771;DHT22;45649;53.014;6.600;2022-08-27T13:54:49;22.10;55.30
59771;DHT22;45649;53.014;6.600;2022-08-27T13:57:27;22.10;55.70
59771;DHT22;45649;53.014;6.600;2022-08-27T13:59:55;22.20;55.40
59771;DHT22;45649;53.014;6.600;2022-08-27T14:02:25;22.10;56.50
59771;DHT22;45649;53.014;6.600;2022-08-27T14:05:14;21.90;57.20
59771;DHT22;45649;53.014;6.600;2022-08-27T14:07:55;21.80;58.50
59771;DHT22;45649;53.014;6.600;2022-08-27T14:10:44;21.50;59.40
59771;DHT22;45649;53.014;6.600;2022-08-27T14:15:44;21.50;59.60
59771;DHT22;45649;53.014;6.600;2022-08-27T14:18:32;21.50;59.60
59771;DHT22;45649;53.014;6.600;2022-08-27T14:21:00;21.60;58.70
59771;DHT22;45649;53.014;6.600;2022-08-27T14:23:27;21.70;58.40
59771;DHT22;45649;53.014;6.600;2022-08-27T14:25:56;21.80;57.50
59771;DHT22;45649;53.014;6.600;2022-08-27T14:28:22;22.00;57.00
59771;DHT22;45649;53.014;6.600;2022-08-27T14:30:48;22.00;56.40
59771;DHT22;45649;53.014;6.600;2022-08-27T14:33:15;22.10;56.30
59771;DHT22;45649;53.014;6.600;2022-08-27T14:35:42;22.10;55.90
59771;DHT22;45649;53.014;6.600;2022-08-27T14:38:15;22.20;55.30
59771;DHT22;45649;53.014;6.600;2022-08-27T14:40:44;22.10;54.80
59771;DHT22;45649;53.014;6.600;2022-08-27T14:43:10;22.00;54.70
59771;DHT22;45649;53.014;6.600;2022-08-27T14:45:37;22.10;55.40
59771;DHT22;45649;53.014;6.600;2022-08-27T14:48:06;22.20;55.60
59771;DHT22;45649;53.014;6.600;2022-08-27T14:50:32;22.10;56.30
59771;DHT22;45649;53.014;6.600;2022-08-27T14:52:58;21.90;57.40
59771;DHT22;45649;53.014;6.600;2022-08-27T14:55:23;21.60;57.80
59771;DHT22;45649;53.014;6.600;2022-08-27T14:57:49;21.60;58.70
59771;DHT22;45649;53.014;6.600;2022-08-27T15:00:16;21.50;58.50
59771;DHT22;45649;53.014;6.600;2022-08-27T15:02:45;21.60;58.90
59771;DHT22;45649;53.014;6.600;2022-08-27T15:05:11;21.40;58.30
59771;DHT22;45649;53.014;6.600;2022-08-27T15:07:37;21.50;58.90
59771;DHT22;45649;53.014;6.600;2022-08-27T15:10:03;21.70;58.40
59771;DHT22;45649;53.014;6.600;2022-08-27T15:12:29;21.70;59.50
59771;DHT22;45649;53.014;6.600;2022-08-27T15:14:54;21.60;57.90
59771;DHT22;45649;53.014;6.600;2022-08-27T15:17:20;21.50;59.20
59771;DHT22;45649;53.014;6.600;2022-08-27T15:19:46;21.50;59.20
59771;DHT22;45649;53.014;6.600;2022-08-27T15:22:19;21.40;58.60
59771;DHT22;45649;53.014;6.600;2022-08-27T15:24:48;21.30;59.40
59771;DHT22;45649;53.014;6.600;2022-08-27T15:27:15;21.20;60.20
59771;DHT22;45649;53.014;6.600;2022-08-27T15:29:41;21.10;60.20
59771;DHT22;45649;53.014;6.600;2022-08-27T15:32:10;20.90;60.00
59771;DHT22;45649;53.014;6.600;2022-08-27T15:34:40;20.90;60.50
59771;DHT22;45649;53.014;6.600;2022-08-27T15:37:06;20.90;59.90
59771;DHT22;45649;53.014;6.600;2022-08-27T15:39:32;20.90;60.20
59771;DHT22;45649;53.014;6.600;2022-08-27T15:41:58;21.00;59.30
59771;DHT22;45649;53.014;6.600;2022-08-27T15:44:23;21.00;59.00
59771;DHT22;45649;53.014;6.600;2022-08-27T15:46:49;21.00;58.30
59771;DHT22;45649;53.014;6.600;2022-08-27T15:49:15;21.00;58.40
59771;DHT22;45649;53.014;6.600;2022-08-27T15:51:41;21.00;58.80
59771;DHT22;45649;53.014;6.600;2022-08-27T15:54:09;21.00;59.80
59771;DHT22;45649;53.014;6.600;2022-08-27T15:56:37;21.10;60.00
59771;DHT22;45649;53.014;6.600;2022-08-27T15:59:04;21.10;59.00
59771;DHT22;45649;53.014;6.600;2022-08-27T16:01:32;21.10;59.40
59771;DHT22;45649;53.014;6.600;2022-08-27T16:04:00;21.10;59.80
59771;DHT22;45649;53.014;6.600;2022-08-27T16:06:27;21.00;60.90
59771;DHT22;45649;53.014;6.600;2022-08-27T16:08:53;21.00;61.50
59771;DHT22;45649;53.014;6.600;2022-08-27T16:11:19;20.90;61.90
59771;DHT22;45649;53.014;6.600;2022-08-27T16:13:46;20.60;61.60
59771;DHT22;45649;53.014;6.600;2022-08-27T16:16:12;20.60;61.80
59771;DHT22;45649;53.014;6.600;2022-08-27T16:18:40;20.60;61.90
59771;DHT22;45649;53.014;6.600;2022-08-27T16:21:07;20.50;61.60
59771;DHT22;45649;53.014;6.600;2022-08-27T16:23:33;20.50;61.10
59771;DHT22;45649;53.014;6.600;2022-08-27T16:25:59;20.50;62.20
59771;DHT22;45649;53.014;6.600;2022-08-27T16:28:25;20.50;61.20
59771;DHT22;45649;53.014;6.600;2022-08-27T16:30:52;20.50;61.60
59771;DHT22;45649;53.014;6.600;2022-08-27T16:33:19;20.50;61.50
59771;DHT22;45649;53.014;6.600;2022-08-27T16:35:45;20.50;61.90
59771;DHT22;45649;53.014;6.600;2022-08-27T16:38:11;20.40;61.80
59771;DHT22;45649;53.014;6.600;2022-08-27T16:40:40;20.30;61.90
59771;DHT22;45649;53.014;6.600;2022-08-27T16:43:07;20.30;61.60
59771;DHT22;45649;53.014;6.600;2022-08-27T16:45:32;20.30;61.90
59771;DHT22;45649;53.014;6.600;2022-08-27T16:47:58;20.30;61.60
59771;DHT22;45649;53.014;6.600;2022-08-27T16:50:42;20.20;61.70
59771;DHT22;45649;53.014;6.600;2022-08-27T16:53:15;20.20;61.60
59771;DHT22;45649;53.014;6.600;2022-08-27T16:55:44;20.20;61.40
59771;DHT22;45649;53.014;6.600;2022-08-27T16:58:21;20.10;61.20
59771;DHT22;45649;53.014;6.600;2022-08-27T17:00:50;20.20;61.00
59771;DHT22;45649;53.014;6.600;2022-08-27T17:03:18;20.20;61.20
59771;DHT22;45649;53.014;6.600;2022-08-27T17:05:44;20.20;61.30
59771;DHT22;45649;53.014;6.600;2022-08-27T17:08:10;20.20;60.80
59771;DHT22;45649;53.014;6.600;2022-08-27T17:10:41;20.20;60.80
59771;DHT22;45649;53.014;6.600;2022-08-27T17:13:15;20.30;60.60
59771;DHT22;45649;53.014;6.600;2022-08-27T17:15:42;20.20;60.80
59771;DHT22;45649;53.014;6.600;2022-08-27T17:18:09;20.20;61.10
59771;DHT22;45649;53.014;6.600;2022-08-27T17:20:35;20.10;60.80
59771;DHT22;45649;53.014;6.600;2022-08-27T17:23:03;20.00;61.30
59771;DHT22;45649;53.014;6.600;2022-08-27T17:25:31;20.10;61.20
59771;DHT22;45649;53.014;6.600;2022-08-27T17:27:57;20.10;60.90